W88 weather

Air Harbor Airport
Greensboro, North Carolina, United States

Public forecast

Using degrees Fahrenheit for public forecast. Weather courtesy of forecast.io.

Closest aviation weather report (METAR) to Air Harbor Airport

Closest report is Piedmont Triad International Airport, 7.9 nm (14.7 km) SW. Retrieved 2020/06/03 18:54 UTC (29 minutes ago):

KGSO 031854Z 27010KT 10SM FEW250 31/19 A2990 RMK AO2 SLP111 T03110194

Closest aviation forecast (TAF) to Air Harbor Airport

Closest forecast is Piedmont Triad International Airport, 7.9 nm (14.7 km) SW. Retrieved 2020/06/03 18:30 UTC (53 minutes ago):

TAF KGSO 031727Z 0318/0418 25012G20KT P6SM SCT050 SCT250 FM040100 22007KT P6SM FEW050 BKN250 FM041600 21012G20KT P6SM BKN050 BKN250